createdAt,value
2024-03-09T00:00:00.000Z,21.82
2024-03-09T00:15:00.000Z,21.76
2024-03-09T00:30:00.000Z,21.05
2024-03-09T00:45:00.000Z,18.58
2024-03-09T01:00:00.000Z,17.88
2024-03-09T01:15:00.000Z,18.44
2024-03-09T01:30:00.000Z,17.78
2024-03-09T01:45:00.000Z,20.69
2024-03-09T02:00:00.000Z,20.99
2024-03-09T02:15:00.000Z,21.52
2024-03-09T02:30:00.000Z,22.33
2024-03-09T02:45:00.000Z,23.72
2024-03-09T03:00:00.000Z,23.81
2024-03-09T03:15:00.000Z,24.74
2024-03-09T03:30:00.000Z,28.06
2024-03-09T03:45:00.000Z,31.11
2024-03-09T04:00:00.000Z,28.41
2024-03-09T04:15:00.000Z,27.78
2024-03-09T04:30:00.000Z,28.73
2024-03-09T04:45:00.000Z,28.65
2024-03-09T05:00:00.000Z,29.25
2024-03-09T05:15:00.000Z,31.02
2024-03-09T05:30:00.000Z,31.22
2024-03-09T05:45:00.000Z,32.45
2024-03-09T06:00:00.000Z,33.93
2024-03-09T06:15:00.000Z,30.31
2024-03-09T06:30:00.000Z,29.07
2024-03-09T06:45:00.000Z,29.12
2024-03-09T07:00:00.000Z,27.45
2024-03-09T07:15:00.000Z,25.31
2024-03-09T07:30:00.000Z,24.79
2024-03-09T07:45:00.000Z,22.72
2024-03-09T08:00:00.000Z,21.04
2024-03-09T08:15:00.000Z,20.68
2024-03-09T08:30:00.000Z,20.56
2024-03-09T08:45:00.000Z,18.47
2024-03-09T09:00:00.000Z,18.12
2024-03-09T09:15:00.000Z,18.58
2024-03-09T09:30:00.000Z,17.66
2024-03-09T09:45:00.000Z,18.75
2024-03-09T10:00:00.000Z,17.79
2024-03-09T10:15:00.000Z,17.32
2024-03-09T10:30:00.000Z,18.36
2024-03-09T10:45:00.000Z,15.25
2024-03-09T11:00:00.000Z,12.35
2024-03-09T11:15:00.000Z,9.51
2024-03-09T11:30:00.000Z,9.4
2024-03-09T11:45:00.000Z,10.51
2024-03-09T12:00:00.000Z,12.87
2024-03-09T12:15:00.000Z,11.71
2024-03-09T12:30:00.000Z,10.56
2024-03-09T12:45:00.000Z,13.87
2024-03-09T13:00:00.000Z,10.87
2024-03-09T13:15:00.000Z,10.87
2024-03-09T13:30:00.000Z,12.39
2024-03-09T13:45:00.000Z,13.94
2024-03-09T14:00:00.000Z,14.51
2024-03-09T14:15:00.000Z,14.21
2024-03-09T14:30:00.000Z,14.69
2024-03-09T14:45:00.000Z,15.33
2024-03-09T15:00:00.000Z,12.74
2024-03-09T15:15:00.000Z,14.78
2024-03-09T15:30:00.000Z,15.02
2024-03-09T15:45:00.000Z,12.8
2024-03-09T16:00:00.000Z,11.06
2024-03-09T16:15:00.000Z,8.64
2024-03-09T16:30:00.000Z,7.13
2024-03-09T16:45:00.000Z,7.08
2024-03-09T17:00:00.000Z,8.34
2024-03-09T17:15:00.000Z,8.2
2024-03-09T17:30:00.000Z,14.86
2024-03-09T17:45:00.000Z,6.33
2024-03-09T18:00:00.000Z,11.15
2024-03-09T18:15:00.000Z,4.15
2024-03-09T18:30:00.000Z,4.14
2024-03-09T18:45:00.000Z,4.33
2024-03-09T19:00:00.000Z,4.19
2024-03-09T19:15:00.000Z,4.09
2024-03-09T19:30:00.000Z,4.07
2024-03-09T19:45:00.000Z,4.04
2024-03-09T20:00:00.000Z,4.11
2024-03-09T20:15:00.000Z,4.07
2024-03-09T20:30:00.000Z,4.05
2024-03-09T20:45:00.000Z,4.08
2024-03-09T21:00:00.000Z,4.01
2024-03-09T21:15:00.000Z,4.09
2024-03-09T21:30:00.000Z,4.08
2024-03-09T21:45:00.000Z,4.04
2024-03-09T22:00:00.000Z,4.01
2024-03-09T22:15:00.000Z,4.09
2024-03-09T22:30:00.000Z,4.06
2024-03-09T22:45:00.000Z,4.12
2024-03-09T23:00:00.000Z,4.19
2024-03-09T23:15:00.000Z,4.09
2024-03-09T23:30:00.000Z,4.21
2024-03-09T23:45:00.000Z,4.19
